sensor_id;sensor_type;location;lat;lon;timestamp;temperature;humidity
9033;DHT22;4551;53.164;8.210;2023-06-10T00:00:31;18.70;99.90
9033;DHT22;4551;53.164;8.210;2023-06-10T00:03:00;18.70;99.90
9033;DHT22;4551;53.164;8.210;2023-06-10T00:05:29;18.70;99.90
9033;DHT22;4551;53.164;8.210;2023-06-10T00:07:58;18.60;99.90
9033;DHT22;4551;53.164;8.210;2023-06-10T00:10:31;18.60;99.90
9033;DHT22;4551;53.164;8.210;2023-06-10T00:12:59;18.50;99.90
9033;DHT22;4551;53.164;8.210;2023-06-10T00:15:27;18.60;99.90
9033;DHT22;4551;53.164;8.210;2023-06-10T00:17:55;18.50;99.90
9033;DHT22;4551;53.164;8.210;2023-06-10T00:20:25;18.50;99.90
9033;DHT22;4551;53.164;8.210;2023-06-10T00:22:53;18.50;99.90
9033;DHT22;4551;53.164;8.210;2023-06-10T00:25:21;18.40;99.90
9033;DHT22;4551;53.164;8.210;2023-06-10T00:27:49;18.40;99.90
9033;DHT22;4551;53.164;8.210;2023-06-10T00:30:18;18.40;99.90
9033;DHT22;4551;53.164;8.210;2023-06-10T00:32:46;18.30;99.90
9033;DHT22;4551;53.164;8.210;2023-06-10T00:35:14;18.20;99.90
9033;DHT22;4551;53.164;8.210;2023-06-10T00:37:43;18.20;99.90
9033;DHT22;4551;53.164;8.210;2023-06-10T00:40:12;18.20;99.90
9033;DHT22;4551;53.164;8.210;2023-06-10T00:42:40;18.20;99.90
9033;DHT22;4551;53.164;8.210;2023-06-10T00:45:15;18.20;99.90
9033;DHT22;4551;53.164;8.210;2023-06-10T00:47:43;18.10;99.90
9033;DHT22;4551;53.164;8.210;2023-06-10T00:50:11;18.10;99.90
9033;DHT22;4551;53.164;8.210;2023-06-10T00:52:40;18.10;99.90
9033;DHT22;4551;53.164;8.210;2023-06-10T00:55:13;18.00;99.90
9033;DHT22;4551;53.164;8.210;2023-06-10T00:57:43;18.00;99.90
9033;DHT22;4551;53.164;8.210;2023-06-10T01:00:12;18.00;99.90
9033;DHT22;4551;53.164;8.210;2023-06-10T01:02:41;17.90;99.90
9033;DHT22;4551;53.164;8.210;2023-06-10T01:05:10;17.80;99.90
9033;DHT22;4551;53.164;8.210;2023-06-10T01:07:40;17.80;99.90
9033;DHT22;4551;53.164;8.210;2023-06-10T01:10:12;17.70;99.90
9033;DHT22;4551;53.164;8.210;2023-06-10T01:12:46;17.70;99.90
9033;DHT22;4551;53.164;8.210;2023-06-10T01:15:18;17.70;99.90
9033;DHT22;4551;53.164;8.210;2023-06-10T01:17:55;17.60;99.90
9033;DHT22;4551;53.164;8.210;2023-06-10T01:20:25;17.60;99.90
9033;DHT22;4551;53.164;8.210;2023-06-10T01:22:55;17.60;99.90
9033;DHT22;4551;53.164;8.210;2023-06-10T01:25:24;17.50;99.90
9033;DHT22;4551;53.164;8.210;2023-06-10T01:28:02;17.50;99.90
9033;DHT22;4551;53.164;8.210;2023-06-10T01:30:34;17.40;99.90
9033;DHT22;4551;53.164;8.210;2023-06-10T01:33:05;17.40;99.90
9033;DHT22;4551;53.164;8.210;2023-06-10T01:35:34;17.30;99.90
9033;DHT22;4551;53.164;8.210;2023-06-10T01:38:05;17.30;99.90
9033;DHT22;4551;53.164;8.210;2023-06-10T01:40:34;17.20;99.90
9033;DHT22;4551;53.164;8.210;2023-06-10T01:43:02;17.20;99.90
9033;DHT22;4551;53.164;8.210;2023-06-10T01:45:30;17.20;99.90
9033;DHT22;4551;53.164;8.210;2023-06-10T01:47:58;17.10;99.90
9033;DHT22;4551;53.164;8.210;2023-06-10T01:50:26;17.10;99.90
9033;DHT22;4551;53.164;8.210;2023-06-10T01:52:54;17.10;99.90
9033;DHT22;4551;53.164;8.210;2023-06-10T01:55:24;17.00;99.90
9033;DHT22;4551;53.164;8.210;2023-06-10T01:57:52;17.00;99.90
9033;DHT22;4551;53.164;8.210;2023-06-10T02:00:20;17.00;99.90
9033;DHT22;4551;53.164;8.210;2023-06-10T02:02:48;16.90;99.90
9033;DHT22;4551;53.164;8.210;2023-06-10T02:05:16;16.80;99.90
9033;DHT22;4551;53.164;8.210;2023-06-10T02:07:45;16.70;99.90
9033;DHT22;4551;53.164;8.210;2023-06-10T02:10:13;16.70;99.90
9033;DHT22;4551;53.164;8.210;2023-06-10T02:12:44;16.70;99.90
9033;DHT22;4551;53.164;8.210;2023-06-10T02:15:12;16.70;99.90
9033;DHT22;4551;53.164;8.210;2023-06-10T02:17:42;16.70;99.90
9033;DHT22;4551;53.164;8.210;2023-06-10T02:20:11;16.60;99.90
9033;DHT22;4551;53.164;8.210;2023-06-10T02:22:40;16.60;99.90
9033;DHT22;4551;53.164;8.210;2023-06-10T02:25:08;16.50;99.90
9033;DHT22;4551;53.164;8.210;2023-06-10T02:27:37;16.50;99.90
9033;DHT22;4551;53.164;8.210;2023-06-10T02:30:07;16.40;99.90
9033;DHT22;4551;53.164;8.210;2023-06-10T02:32:37;16.40;99.90
9033;DHT22;4551;53.164;8.210;2023-06-10T02:35:05;16.40;99.90
9033;DHT22;4551;53.164;8.210;2023-06-10T02:37:34;16.30;99.90
9033;DHT22;4551;53.164;8.210;2023-06-10T02:40:02;16.30;99.90
9033;DHT22;4551;53.164;8.210;2023-06-10T02:42:31;16.30;99.90
9033;DHT22;4551;53.164;8.210;2023-06-10T02:44:59;16.30;99.90
9033;DHT22;4551;53.164;8.210;2023-06-10T02:47:30;16.20;99.90
9033;DHT22;4551;53.164;8.210;2023-06-10T02:49:58;16.20;99.90
9033;DHT22;4551;53.164;8.210;2023-06-10T02:52:27;16.10;99.90
9033;DHT22;4551;53.164;8.210;2023-06-10T02:54:55;16.10;99.90
9033;DHT22;4551;53.164;8.210;2023-06-10T02:57:23;16.10;99.90
9033;DHT22;4551;53.164;8.210;2023-06-10T02:59:51;16.00;99.90
9033;DHT22;4551;53.164;8.210;2023-06-10T03:02:20;16.00;99.90
9033;DHT22;4551;53.164;8.210;2023-06-10T03:04:49;15.90;99.90
9033;DHT22;4551;53.164;8.210;2023-06-10T03:07:17;15.90;99.90
9033;DHT22;4551;53.164;8.210;2023-06-10T03:09:47;15.90;99.90
9033;DHT22;4551;53.164;8.210;2023-06-10T03:12:15;15.80;99.90
9033;DHT22;4551;53.164;8.210;2023-06-10T03:14:43;15.80;99.90
9033;DHT22;4551;53.164;8.210;2023-06-10T03:17:13;15.80;99.90
9033;DHT22;4551;53.164;8.210;2023-06-10T03:19:41;15.70;99.90
9033;DHT22;4551;53.164;8.210;2023-06-10T03:22:12;15.70;99.90
9033;DHT22;4551;53.164;8.210;2023-06-10T03:24:41;14.30;99.90
9033;DHT22;4551;53.164;8.210;2023-06-10T03:27:10;15.60;99.90
9033;DHT22;4551;53.164;8.210;2023-06-10T03:29:38;15.60;99.90
9033;DHT22;4551;53.164;8.210;2023-06-10T03:32:07;15.60;99.90
9033;DHT22;4551;53.164;8.210;2023-06-10T03:34:35;15.50;99.90
9033;DHT22;4551;53.164;8.210;2023-06-10T03:37:03;15.50;99.90
9033;DHT22;4551;53.164;8.210;2023-06-10T03:39:33;15.50;99.90
9033;DHT22;4551;53.164;8.210;2023-06-10T03:42:03;15.50;99.90
9033;DHT22;4551;53.164;8.210;2023-06-10T03:44:32;15.50;99.90
9033;DHT22;4551;53.164;8.210;2023-06-10T03:47:02;15.50;99.90
9033;DHT22;4551;53.164;8.210;2023-06-10T03:49:34;15.50;99.90
9033;DHT22;4551;53.164;8.210;2023-06-10T03:52:03;15.50;99.90
9033;DHT22;4551;53.164;8.210;2023-06-10T03:54:32;15.40;99.90
9033;DHT22;4551;53.164;8.210;2023-06-10T03:57:01;15.40;99.90
9033;DHT22;4551;53.164;8.210;2023-06-10T03:59:29;15.40;99.90
9033;DHT22;4551;53.164;8.210;2023-06-10T04:01:57;15.30;99.90
9033;DHT22;4551;53.164;8.210;2023-06-10T04:04:27;15.40;99.90
9033;DHT22;4551;53.164;8.210;2023-06-10T04:06:55;15.30;99.90
9033;DHT22;4551;53.164;8.210;2023-06-10T04:09:23;15.30;99.90
9033;DHT22;4551;53.164;8.210;2023-06-10T04:11:52;15.30;99.90
9033;DHT22;4551;53.164;8.210;2023-06-10T04:14:20;15.30;99.90
9033;DHT22;4551;53.164;8.210;2023-06-10T04:16:49;15.20;99.90
9033;DHT22;4551;53.164;8.210;2023-06-10T04:19:18;15.20;99.90
9033;DHT22;4551;53.164;8.210;2023-06-10T04:21:46;15.20;99.90
9033;DHT22;4551;53.164;8.210;2023-06-10T04:24:14;15.20;99.90
9033;DHT22;4551;53.164;8.210;2023-06-10T04:26:43;15.20;99.90
9033;DHT22;4551;53.164;8.210;2023-06-10T04:29:13;15.20;99.90
9033;DHT22;4551;53.164;8.210;2023-06-10T04:31:41;15.20;99.90
9033;DHT22;4551;53.164;8.210;2023-06-10T04:34:09;15.20;99.90
9033;DHT22;4551;53.164;8.210;2023-06-10T04:36:37;15.20;99.90
9033;DHT22;4551;53.164;8.210;2023-06-10T04:39:05;15.20;99.90
9033;DHT22;4551;53.164;8.210;2023-06-10T04:41:33;15.20;99.90
9033;DHT22;4551;53.164;8.210;2023-06-10T04:44:01;15.10;99.90
9033;DHT22;4551;53.164;8.210;2023-06-10T04:46:31;15.10;99.90
9033;DHT22;4551;53.164;8.210;2023-06-10T04:48:59;15.10;99.90
9033;DHT22;4551;53.164;8.210;2023-06-10T04:51:27;15.20;99.90
9033;DHT22;4551;53.164;8.210;2023-06-10T04:53:55;15.20;99.90
9033;DHT22;4551;53.164;8.210;2023-06-10T04:56:23;15.20;99.90
9033;DHT22;4551;53.164;8.210;2023-06-10T04:58:51;15.20;99.90
9033;DHT22;4551;53.164;8.210;2023-06-10T05:01:19;15.20;99.90
9033;DHT22;4551;53.164;8.210;2023-06-10T05:03:49;15.00;99.90
9033;DHT22;4551;53.164;8.210;2023-06-10T05:06:17;15.20;99.90
9033;DHT22;4551;53.164;8.210;2023-06-10T05:08:45;15.20;99.90
9033;DHT22;4551;53.164;8.210;2023-06-10T05:11:13;15.20;99.90
9033;DHT22;4551;53.164;8.210;2023-06-10T05:13:41;15.20;99.90
9033;DHT22;4551;53.164;8.210;2023-06-10T05:16:11;15.20;99.90
9033;DHT22;4551;53.164;8.210;2023-06-10T05:18:39;15.20;99.90
9033;DHT22;4551;53.164;8.210;2023-06-10T05:21:08;15.20;99.90
9033;DHT22;4551;53.164;8.210;2023-06-10T05:23:36;15.20;99.90
9033;DHT22;4551;53.164;8.210;2023-06-10T05:26:04;15.30;99.90
9033;DHT22;4551;53.164;8.210;2023-06-10T05:28:33;15.30;99.90
9033;DHT22;4551;53.164;8.210;2023-06-10T05:31:00;15.40;99.90
9033;DHT22;4551;53.164;8.210;2023-06-10T05:33:29;15.40;99.90
9033;DHT22;4551;53.164;8.210;2023-06-10T05:35:57;15.40;99.90
9033;DHT22;4551;53.164;8.210;2023-06-10T05:38:29;15.40;99.90
9033;DHT22;4551;53.164;8.210;2023-06-10T05:40:57;15.50;99.90
9033;DHT22;4551;53.164;8.210;2023-06-10T05:43:25;15.40;99.90
9033;DHT22;4551;53.164;8.210;2023-06-10T05:45:53;15.50;99.90
9033;DHT22;4551;53.164;8.210;2023-06-10T05:48:21;15.50;99.90
9033;DHT22;4551;53.164;8.210;2023-06-10T05:50:50;15.50;99.90
9033;DHT22;4551;53.164;8.210;2023-06-10T05:53:18;15.50;99.90
9033;DHT22;4551;53.164;8.210;2023-06-10T05:55:48;15.60;99.90
9033;DHT22;4551;53.164;8.210;2023-06-10T05:58:16;15.60;99.90
9033;DHT22;4551;53.164;8.210;2023-06-10T06:00:44;15.60;99.90
9033;DHT22;4551;53.164;8.210;2023-06-10T06:03:12;15.70;99.90
9033;DHT22;4551;53.164;8.210;2023-06-10T06:05:42;15.70;99.90
9033;DHT22;4551;53.164;8.210;2023-06-10T06:08:12;15.70;99.90
9033;DHT22;4551;53.164;8.210;2023-06-10T06:10:44;15.80;99.90
9033;DHT22;4551;53.164;8.210;2023-06-10T06:13:13;15.80;99.90
9033;DHT22;4551;53.164;8.210;2023-06-10T06:15:41;15.80;99.90
9033;DHT22;4551;53.164;8.210;2023-06-10T06:18:09;15.80;99.90
9033;DHT22;4551;53.164;8.210;2023-06-10T06:20:37;15.80;99.90
9033;DHT22;4551;53.164;8.210;2023-06-10T06:23:05;15.80;99.90
9033;DHT22;4551;53.164;8.210;2023-06-10T06:25:38;15.90;99.90
9033;DHT22;4551;53.164;8.210;2023-06-10T06:28:06;15.90;99.90
9033;DHT22;4551;53.164;8.210;2023-06-10T06:30:37;16.00;99.90
9033;DHT22;4551;53.164;8.210;2023-06-10T06:33:05;16.10;99.90
9033;DHT22;4551;53.164;8.210;2023-06-10T06:35:33;16.10;99.90
9033;DHT22;4551;53.164;8.210;2023-06-10T06:38:02;16.20;99.90
9033;DHT22;4551;53.164;8.210;2023-06-10T06:40:30;16.20;99.90
9033;DHT22;4551;53.164;8.210;2023-06-10T06:42:59;16.30;99.90
9033;DHT22;4551;53.164;8.210;2023-06-10T06:45:27;16.30;99.90
9033;DHT22;4551;53.164;8.210;2023-06-10T06:47:56;16.30;99.90
9033;DHT22;4551;53.164;8.210;2023-06-10T06:50:24;16.30;99.90
9033;DHT22;4551;53.164;8.210;2023-06-10T06:52:52;16.30;99.90
9033;DHT22;4551;53.164;8.210;2023-06-10T06:55:20;16.40;99.90
9033;DHT22;4551;53.164;8.210;2023-06-10T06:57:48;16.40;99.90
9033;DHT22;4551;53.164;8.210;2023-06-10T07:00:17;16.40;99.90
9033;DHT22;4551;53.164;8.210;2023-06-10T07:02:45;16.40;99.90
9033;DHT22;4551;53.164;8.210;2023-06-10T07:05:14;16.50;99.90
9033;DHT22;4551;53.164;8.210;2023-06-10T07:07:43;16.50;99.90
9033;DHT22;4551;53.164;8.210;2023-06-10T07:10:11;16.60;99.90
9033;DHT22;4551;53.164;8.210;2023-06-10T07:12:39;16.60;99.90
9033;DHT22;4551;53.164;8.210;2023-06-10T07:15:07;16.60;99.90
9033;DHT22;4551;53.164;8.210;2023-06-10T07:17:36;16.60;99.90
9033;DHT22;4551;53.164;8.210;2023-06-10T07:20:04;16.60;99.90
9033;DHT22;4551;53.164;8.210;2023-06-10T07:22:34;16.60;99.90
9033;DHT22;4551;53.164;8.210;2023-06-10T07:25:02;16.70;99.90
9033;DHT22;4551;53.164;8.210;2023-06-10T07:27:30;16.70;99.90
9033;DHT22;4551;53.164;8.210;2023-06-10T07:29:58;16.70;99.90
9033;DHT22;4551;53.164;8.210;2023-06-10T07:32:29;16.70;99.90
9033;DHT22;4551;53.164;8.210;2023-06-10T07:34:57;16.70;99.90
9033;DHT22;4551;53.164;8.210;2023-06-10T07:37:26;16.80;99.90
9033;DHT22;4551;53.164;8.210;2023-06-10T07:39:56;16.80;99.90
9033;DHT22;4551;53.164;8.210;2023-06-10T07:42:24;16.80;99.90
9033;DHT22;4551;53.164;8.210;2023-06-10T07:44:52;16.80;99.90
9033;DHT22;4551;53.164;8.210;2023-06-10T07:47:22;16.80;99.90
9033;DHT22;4551;53.164;8.210;2023-06-10T07:49:50;16.70;99.90
9033;DHT22;4551;53.164;8.210;2023-06-10T07:52:18;16.90;99.90
9033;DHT22;4551;53.164;8.210;2023-06-10T07:54:47;16.90;99.90
9033;DHT22;4551;53.164;8.210;2023-06-10T07:57:17;16.90;99.90
9033;DHT22;4551;53.164;8.210;2023-06-10T07:59:45;17.00;99.90
9033;DHT22;4551;53.164;8.210;2023-06-10T08:02:13;17.00;99.90
9033;DHT22;4551;53.164;8.210;2023-06-10T08:04:41;17.10;99.90
9033;DHT22;4551;53.164;8.210;2023-06-10T08:07:09;17.10;99.90
9033;DHT22;4551;53.164;8.210;2023-06-10T08:09:37;17.10;99.90
9033;DHT22;4551;53.164;8.210;2023-06-10T08:12:05;17.10;99.90
9033;DHT22;4551;53.164;8.210;2023-06-10T08:14:35;17.20;99.90
9033;DHT22;4551;53.164;8.210;2023-06-10T08:17:03;17.20;99.90
9033;DHT22;4551;53.164;8.210;2023-06-10T08:19:32;17.20;99.90
9033;DHT22;4551;53.164;8.210;2023-06-10T08:22:00;17.30;99.90
9033;DHT22;4551;53.164;8.210;2023-06-10T08:24:28;17.40;99.90
9033;DHT22;4551;53.164;8.210;2023-06-10T08:26:56;17.50;99.90
9033;DHT22;4551;53.164;8.210;2023-06-10T08:29:25;17.50;99.90
9033;DHT22;4551;53.164;8.210;2023-06-10T08:31:55;17.60;99.90
9033;DHT22;4551;53.164;8.210;2023-06-10T08:34:23;17.60;99.90
9033;DHT22;4551;53.164;8.210;2023-06-10T08:36:51;17.70;99.90
9033;DHT22;4551;53.164;8.210;2023-06-10T08:39:21;17.80;99.90
9033;DHT22;4551;53.164;8.210;2023-06-10T08:41:51;17.90;99.90
9033;DHT22;4551;53.164;8.210;2023-06-10T08:44:26;17.90;99.90
9033;DHT22;4551;53.164;8.210;2023-06-10T08:46:57;18.00;99.90
9033;DHT22;4551;53.164;8.210;2023-06-10T08:49:26;18.00;99.90
9033;DHT22;4551;53.164;8.210;2023-06-10T08:51:58;18.10;99.90
9033;DHT22;4551;53.164;8.210;2023-06-10T08:54:27;18.10;99.90
9033;DHT22;4551;53.164;8.210;2023-06-10T08:56:56;18.20;99.90
9033;DHT22;4551;53.164;8.210;2023-06-10T08:59:28;18.20;99.90
9033;DHT22;4551;53.164;8.210;2023-06-10T09:01:58;18.30;99.90
9033;DHT22;4551;53.164;8.210;2023-06-10T09:04:27;18.40;99.90
9033;DHT22;4551;53.164;8.210;2023-06-10T09:06:55;18.50;99.90
9033;DHT22;4551;53.164;8.210;2023-06-10T09:09:25;18.50;99.90
9033;DHT22;4551;53.164;8.210;2023-06-10T09:11:57;18.60;99.90
9033;DHT22;4551;53.164;8.210;2023-06-10T09:14:25;18.70;99.90
9033;DHT22;4551;53.164;8.210;2023-06-10T09:16:53;18.70;99.90
9033;DHT22;4551;53.164;8.210;2023-06-10T09:19:25;18.80;99.90
9033;DHT22;4551;53.164;8.210;2023-06-10T09:21:55;18.80;99.90
9033;DHT22;4551;53.164;8.210;2023-06-10T09:24:23;18.80;99.90
9033;DHT22;4551;53.164;8.210;2023-06-10T09:26:54;19.00;99.90
9033;DHT22;4551;53.164;8.210;2023-06-10T09:29:29;19.00;99.90
9033;DHT22;4551;53.164;8.210;2023-06-10T09:31:57;19.20;99.90
9033;DHT22;4551;53.164;8.210;2023-06-10T09:34:27;19.20;99.90
9033;DHT22;4551;53.164;8.210;2023-06-10T09:36:56;19.30;99.90
9033;DHT22;4551;53.164;8.210;2023-06-10T09:39:24;19.30;99.90
9033;DHT22;4551;53.164;8.210;2023-06-10T09:41:52;19.30;99.90
9033;DHT22;4551;53.164;8.210;2023-06-10T09:44:21;19.40;99.90
9033;DHT22;4551;53.164;8.210;2023-06-10T09:46:51;19.40;99.90
9033;DHT22;4551;53.164;8.210;2023-06-10T09:49:21;19.60;99.90
9033;DHT22;4551;53.164;8.210;2023-06-10T09:51:51;19.60;99.90
9033;DHT22;4551;53.164;8.210;2023-06-10T09:54:19;19.70;99.90
9033;DHT22;4551;53.164;8.210;2023-06-10T09:56:48;19.80;99.90
9033;DHT22;4551;53.164;8.210;2023-06-10T09:59:16;19.90;99.90
9033;DHT22;4551;53.164;8.210;2023-06-10T10:01:55;20.00;99.90
9033;DHT22;4551;53.164;8.210;2023-06-10T10:04:23;20.10;99.90
9033;DHT22;4551;53.164;8.210;2023-06-10T10:06:53;20.20;99.90
9033;DHT22;4551;53.164;8.210;2023-06-10T10:09:21;20.30;99.90
9033;DHT22;4551;53.164;8.210;2023-06-10T10:11:49;20.30;99.90
9033;DHT22;4551;53.164;8.210;2023-06-10T10:14:18;20.40;99.90
9033;DHT22;4551;53.164;8.210;2023-06-10T10:16:47;20.50;99.90
9033;DHT22;4551;53.164;8.210;2023-06-10T10:19:18;20.50;99.90
9033;DHT22;4551;53.164;8.210;2023-06-10T10:21:49;20.60;99.90
9033;DHT22;4551;53.164;8.210;2023-06-10T10:24:20;20.70;99.90
9033;DHT22;4551;53.164;8.210;2023-06-10T10:26:49;20.80;99.90
9033;DHT22;4551;53.164;8.210;2023-06-10T10:29:20;20.80;99.90
9033;DHT22;4551;53.164;8.210;2023-06-10T10:31:51;20.90;99.90
9033;DHT22;4551;53.164;8.210;2023-06-10T10:34:21;21.00;99.90
9033;DHT22;4551;53.164;8.210;2023-06-10T10:36:49;21.10;99.90
9033;DHT22;4551;53.164;8.210;2023-06-10T10:39:18;21.20;99.90
9033;DHT22;4551;53.164;8.210;2023-06-10T10:41:47;21.20;99.90
9033;DHT22;4551;53.164;8.210;2023-06-10T10:44:17;21.30;99.90
9033;DHT22;4551;53.164;8.210;2023-06-10T10:46:48;21.40;99.90
9033;DHT22;4551;53.164;8.210;2023-06-10T10:49:17;21.40;99.90
9033;DHT22;4551;53.164;8.210;2023-06-10T10:51:55;21.50;99.90
9033;DHT22;4551;53.164;8.210;2023-06-10T10:54:32;21.60;99.90
9033;DHT22;4551;53.164;8.210;2023-06-10T10:57:12;21.70;99.90
9033;DHT22;4551;53.164;8.210;2023-06-10T10:59:57;21.70;99.90
9033;DHT22;4551;53.164;8.210;2023-06-10T11:02:33;21.80;99.90
9033;DHT22;4551;53.164;8.210;2023-06-10T11:05:02;21.90;99.90
9033;DHT22;4551;53.164;8.210;2023-06-10T11:07:31;22.00;99.90
9033;DHT22;4551;53.164;8.210;2023-06-10T11:09:59;22.10;99.90
9033;DHT22;4551;53.164;8.210;2023-06-10T11:12:42;22.20;99.90
9033;DHT22;4551;53.164;8.210;2023-06-10T11:15:18;22.30;99.90
9033;DHT22;4551;53.164;8.210;2023-06-10T11:23:30;22.60;99.90
9033;DHT22;4551;53.164;8.210;2023-06-10T11:26:14;22.70;99.90
9033;DHT22;4551;53.164;8.210;2023-06-10T11:31:27;22.80;99.90
9033;DHT22;4551;53.164;8.210;2023-06-10T11:33:57;22.90;99.90
9033;DHT22;4551;53.164;8.210;2023-06-10T11:36:25;22.90;99.90
9033;DHT22;4551;53.164;8.210;2023-06-10T11:38:55;23.00;99.90
9033;DHT22;4551;53.164;8.210;2023-06-10T11:41:23;23.60;99.90
9033;DHT22;4551;53.164;8.210;2023-06-10T11:43:52;23.80;99.90
9033;DHT22;4551;53.164;8.210;2023-06-10T11:46:20;23.30;99.90
9033;DHT22;4551;53.164;8.210;2023-06-10T11:48:51;23.30;99.90
9033;DHT22;4551;53.164;8.210;2023-06-10T11:51:19;23.40;99.90
9033;DHT22;4551;53.164;8.210;2023-06-10T11:53:47;23.50;99.90
9033;DHT22;4551;53.164;8.210;2023-06-10T11:56:19;23.60;99.90
9033;DHT22;4551;53.164;8.210;2023-06-10T11:58:51;23.80;99.90
9033;DHT22;4551;53.164;8.210;2023-06-10T12:01:20;24.00;99.90
9033;DHT22;4551;53.164;8.210;2023-06-10T12:04:00;24.00;99.90
9033;DHT22;4551;53.164;8.210;2023-06-10T12:06:37;24.20;99.90
9033;DHT22;4551;53.164;8.210;2023-06-10T12:09:06;24.40;99.90
9033;DHT22;4551;53.164;8.210;2023-06-10T12:11:50;24.50;99.90
9033;DHT22;4551;53.164;8.210;2023-06-10T12:17:05;24.70;99.90
9033;DHT22;4551;53.164;8.210;2023-06-10T12:19:39;24.80;99.90
9033;DHT22;4551;53.164;8.210;2023-06-10T12:22:07;24.90;99.90
9033;DHT22;4551;53.164;8.210;2023-06-10T12:24:42;25.00;99.90
9033;DHT22;4551;53.164;8.210;2023-06-10T12:27:11;25.10;99.90
9033;DHT22;4551;53.164;8.210;2023-06-10T12:29:39;25.30;99.90
9033;DHT22;4551;53.164;8.210;2023-06-10T12:32:07;25.40;99.90
9033;DHT22;4551;53.164;8.210;2023-06-10T12:34:39;25.50;99.90
9033;DHT22;4551;53.164;8.210;2023-06-10T12:37:09;25.60;99.90
9033;DHT22;4551;53.164;8.210;2023-06-10T12:39:40;25.70;99.90
9033;DHT22;4551;53.164;8.210;2023-06-10T12:42:08;25.80;99.90
9033;DHT22;4551;53.164;8.210;2023-06-10T12:44:38;25.90;99.90
9033;DHT22;4551;53.164;8.210;2023-06-10T12:47:07;26.00;99.90
9033;DHT22;4551;53.164;8.210;2023-06-10T12:49:38;26.10;99.90
9033;DHT22;4551;53.164;8.210;2023-06-10T12:52:06;26.30;99.90
9033;DHT22;4551;53.164;8.210;2023-06-10T12:54:34;26.40;99.90
9033;DHT22;4551;53.164;8.210;2023-06-10T12:57:03;26.50;99.90
9033;DHT22;4551;53.164;8.210;2023-06-10T12:59:31;26.60;99.90
9033;DHT22;4551;53.164;8.210;2023-06-10T13:01:59;26.80;99.90
9033;DHT22;4551;53.164;8.210;2023-06-10T13:04:27;26.80;99.90
9033;DHT22;4551;53.164;8.210;2023-06-10T13:06:57;26.90;99.90
9033;DHT22;4551;53.164;8.210;2023-06-10T13:09:25;27.00;99.90
9033;DHT22;4551;53.164;8.210;2023-06-10T13:11:54;27.20;99.90
9033;DHT22;4551;53.164;8.210;2023-06-10T13:14:22;27.30;99.90
9033;DHT22;4551;53.164;8.210;2023-06-10T13:16:50;27.40;99.90
9033;DHT22;4551;53.164;8.210;2023-06-10T13:19:18;27.50;99.90
9033;DHT22;4551;53.164;8.210;2023-06-10T13:21:48;27.60;99.90
9033;DHT22;4551;53.164;8.210;2023-06-10T13:24:17;27.80;99.90
9033;DHT22;4551;53.164;8.210;2023-06-10T13:26:47;27.90;99.90
9033;DHT22;4551;53.164;8.210;2023-06-10T13:29:15;28.10;99.90
9033;DHT22;4551;53.164;8.210;2023-06-10T13:31:43;28.30;99.90
9033;DHT22;4551;53.164;8.210;2023-06-10T13:34:11;28.30;99.90
9033;DHT22;4551;53.164;8.210;2023-06-10T13:36:40;28.40;99.90
9033;DHT22;4551;53.164;8.210;2023-06-10T13:39:08;28.50;99.90
9033;DHT22;4551;53.164;8.210;2023-06-10T13:41:37;28.60;99.90
9033;DHT22;4551;53.164;8.210;2023-06-10T13:44:05;28.80;99.90
9033;DHT22;4551;53.164;8.210;2023-06-10T13:46:34;29.00;99.90
9033;DHT22;4551;53.164;8.210;2023-06-10T13:49:02;29.20;99.90
9033;DHT22;4551;53.164;8.210;2023-06-10T13:51:30;29.40;99.90
9033;DHT22;4551;53.164;8.210;2023-06-10T13:53:59;29.50;99.90
9033;DHT22;4551;53.164;8.210;2023-06-10T13:56:27;29.60;99.90
9033;DHT22;4551;53.164;8.210;2023-06-10T13:58:56;29.80;99.90
9033;DHT22;4551;53.164;8.210;2023-06-10T14:01:26;30.00;99.90
9033;DHT22;4551;53.164;8.210;2023-06-10T14:03:54;30.10;99.90
9033;DHT22;4551;53.164;8.210;2023-06-10T14:06:23;30.30;99.90
9033;DHT22;4551;53.164;8.210;2023-06-10T14:08:51;30.50;99.90
9033;DHT22;4551;53.164;8.210;2023-06-10T14:11:21;30.70;99.90
9033;DHT22;4551;53.164;8.210;2023-06-10T14:13:49;31.00;99.90
9033;DHT22;4551;53.164;8.210;2023-06-10T14:16:19;31.30;99.90
9033;DHT22;4551;53.164;8.210;2023-06-10T14:18:47;31.50;99.90
9033;DHT22;4551;53.164;8.210;2023-06-10T14:21:16;31.70;99.90
9033;DHT22;4551;53.164;8.210;2023-06-10T14:23:44;31.90;99.90
9033;DHT22;4551;53.164;8.210;2023-06-10T14:26:12;32.40;99.90
9033;DHT22;4551;53.164;8.210;2023-06-10T14:28:40;32.80;98.30
9033;DHT22;4551;53.164;8.210;2023-06-10T14:31:09;32.90;98.90
9033;DHT22;4551;53.164;8.210;2023-06-10T14:33:38;33.30;98.70
9033;DHT22;4551;53.164;8.210;2023-06-10T14:36:09;33.60;98.10
9033;DHT22;4551;53.164;8.210;2023-06-10T14:38:37;33.80;96.90
9033;DHT22;4551;53.164;8.210;2023-06-10T14:41:05;34.00;96.30
9033;DHT22;4551;53.164;8.210;2023-06-10T14:43:33;34.30;96.40
9033;DHT22;4551;53.164;8.210;2023-06-10T14:46:02;34.50;96.00
9033;DHT22;4551;53.164;8.210;2023-06-10T14:48:30;34.80;96.10
9033;DHT22;4551;53.164;8.210;2023-06-10T14:51:00;35.00;95.60
9033;DHT22;4551;53.164;8.210;2023-06-10T14:53:31;35.20;95.70
9033;DHT22;4551;53.164;8.210;2023-06-10T14:55:59;35.50;94.60
9033;DHT22;4551;53.164;8.210;2023-06-10T14:58:27;35.60;94.60
9033;DHT22;4551;53.164;8.210;2023-06-10T15:00:55;35.70;93.60
9033;DHT22;4551;53.164;8.210;2023-06-10T15:03:23;36.10;92.90
9033;DHT22;4551;53.164;8.210;2023-06-10T15:05:52;36.30;93.80
9033;DHT22;4551;53.164;8.210;2023-06-10T15:08:21;36.40;93.60
9033;DHT22;4551;53.164;8.210;2023-06-10T15:10:49;36.60;92.40
9033;DHT22;4551;53.164;8.210;2023-06-10T15:13:17;36.50;93.20
9033;DHT22;4551;53.164;8.210;2023-06-10T15:15:54;36.80;93.00
9033;DHT22;4551;53.164;8.210;2023-06-10T15:18:23;37.30;92.60
9033;DHT22;4551;53.164;8.210;2023-06-10T15:20:51;37.30;92.30
9033;DHT22;4551;53.164;8.210;2023-06-10T15:23:19;37.40;92.70
9033;DHT22;4551;53.164;8.210;2023-06-10T15:25:48;37.70;91.90
9033;DHT22;4551;53.164;8.210;2023-06-10T15:28:16;38.00;91.30
9033;DHT22;4551;53.164;8.210;2023-06-10T15:30:45;38.00;91.50
9033;DHT22;4551;53.164;8.210;2023-06-10T15:33:13;38.20;91.70
9033;DHT22;4551;53.164;8.210;2023-06-10T15:35:41;38.10;91.30
9033;DHT22;4551;53.164;8.210;2023-06-10T15:38:09;38.40;91.00
9033;DHT22;4551;53.164;8.210;2023-06-10T15:40:37;38.60;89.50
9033;DHT22;4551;53.164;8.210;2023-06-10T15:43:06;38.70;90.80
9033;DHT22;4551;53.164;8.210;2023-06-10T15:45:34;38.60;90.70
9033;DHT22;4551;53.164;8.210;2023-06-10T15:48:03;38.50;90.50
9033;DHT22;4551;53.164;8.210;2023-06-10T15:50:31;38.30;89.50
9033;DHT22;4551;53.164;8.210;2023-06-10T15:52:59;38.10;89.60
9033;DHT22;4551;53.164;8.210;2023-06-10T15:55:27;38.00;89.40
9033;DHT22;4551;53.164;8.210;2023-06-10T15:57:56;38.20;90.30
9033;DHT22;4551;53.164;8.210;2023-06-10T16:00:28;38.10;89.10
9033;DHT22;4551;53.164;8.210;2023-06-10T16:02:56;38.20;90.00
9033;DHT22;4551;53.164;8.210;2023-06-10T16:05:24;38.00;90.10
9033;DHT22;4551;53.164;8.210;2023-06-10T16:07:52;37.80;90.40
9033;DHT22;4551;53.164;8.210;2023-06-10T16:10:20;37.60;90.50
9033;DHT22;4551;53.164;8.210;2023-06-10T16:12:49;37.30;90.00
9033;DHT22;4551;53.164;8.210;2023-06-10T16:15:17;37.20;90.50
9033;DHT22;4551;53.164;8.210;2023-06-10T16:17:47;36.90;90.30
9033;DHT22;4551;53.164;8.210;2023-06-10T16:20:15;36.70;90.30
9033;DHT22;4551;53.164;8.210;2023-06-10T16:22:43;36.50;90.70
9033;DHT22;4551;53.164;8.210;2023-06-10T16:25:11;36.30;90.40